Time;durP1;ratioP1;P1;durP2;ratioP2;P2;SDS_P1;SDS_P2;PMS_P1;PMS_P2;Temp;Humidity;BMP_temperature;BMP_pressure;BME280_temperature;BME280_humidity;BME280_pressure;Samples;Min_cycle;Max_cycle;Signal;HPM_P1;HPM_P2
2023/06/14 00:02:22;;;;;;;10.63;4.43;;;;;;;;;;5051948;28;20034;-79
2023/06/14 00:04:48;;;;;;;9.25;4.88;;;;;;;;;;5049395;28;20040;-80
2023/06/14 00:07:16;;;;;;;6.68;4.65;;;;;;;;;;5051213;28;21067;-80
2023/06/14 00:09:43;;;;;;;9.18;5.38;;;;;;;;;;5050349;28;20021;-80
2023/06/14 00:12:11;;;;;;;13.60;5.07;;;;;;;;;;5051034;28;20031;-82
2023/06/14 00:14:39;;;;;;;5.72;4.50;;;;;;;;;;5050841;28;20025;-80
2023/06/14 00:17:07;;;;;;;9.55;4.75;;;;;;;;;;5044917;28;20044;-82
2023/06/14 00:19:35;;;;;;;11.35;5.05;;;;;;;;;;5044338;28;20040;-79
2023/06/14 00:22:01;;;;;;;8.35;5.35;;;;;;;;;;5050694;28;20037;-80
2023/06/14 00:24:27;;;;;;;6.80;4.95;;;;;;;;;;5050470;28;20033;-82
2023/06/14 00:26:55;;;;;;;8.20;4.78;;;;;;;;;;5051325;28;20045;-80
2023/06/14 00:29:30;;;;;;;6.03;4.78;;;;;;;;;;5041591;28;20213;-82
2023/06/14 00:31:56;;;;;;;6.70;4.55;;;;;;;;;;5045109;28;20014;-79
2023/06/14 00:34:25;;;;;;;9.75;5.13;;;;;;;;;;5052021;28;20146;-80
2023/06/14 00:36:51;;;;;;;9.73;5.15;;;;;;;;;;5043208;28;20128;-81
2023/06/14 00:39:17;;;;;;;10.45;4.90;;;;;;;;;;5049721;28;20052;-81
2023/06/14 00:41:47;;;;;;;7.82;5.13;;;;;;;;;;5044729;28;20041;-80
2023/06/14 00:44:16;;;;;;;9.68;5.30;;;;;;;;;;5049663;28;20064;-79
2023/06/14 00:46:43;;;;;;;7.10;5.25;;;;;;;;;;5064191;28;20010;-79
2023/06/14 00:49:10;;;;;;;12.25;5.07;;;;;;;;;;5050273;28;20029;-80
2023/06/14 00:51:44;;;;;;;12.45;4.82;;;;;;;;;;5043875;28;20022;-81
2023/06/14 00:54:10;;;;;;;11.45;5.32;;;;;;;;;;5043419;28;20030;-80
2023/06/14 00:56:37;;;;;;;11.95;5.07;;;;;;;;;;5049797;28;20056;-83
2023/06/14 00:59:06;;;;;;;9.10;5.03;;;;;;;;;;5049351;28;20100;-81
2023/06/14 01:01:35;;;;;;;9.98;4.97;;;;;;;;;;5050619;28;20072;-80
2023/06/14 01:04:01;;;;;;;9.43;5.18;;;;;;;;;;5043186;28;20025;-82
2023/06/14 01:08:59;;;;;;;;;;;;;;;;;;5028655;28;20056;-80
2023/06/14 01:14:18;;;;;;;9.50;5.18;;;;;;;;;;5040504;23;20306;-83
2023/06/14 01:16:45;;;;;;;6.57;4.38;;;;;;;;;;5025942;28;20046;-80
2023/06/14 01:19:13;;;;;;;7.80;4.97;;;;;;;;;;5027166;28;20030;-79
2023/06/14 01:21:42;;;;;;;9.57;5.55;;;;;;;;;;5040880;28;20062;-80
2023/06/14 01:24:09;;;;;;;11.20;5.93;;;;;;;;;;5024714;28;20057;-80
2023/06/14 01:26:39;;;;;;;8.45;4.68;;;;;;;;;;5041007;28;20021;-80
2023/06/14 01:29:08;;;;;;;7.97;4.57;;;;;;;;;;5025556;28;20654;-79
2023/06/14 01:31:41;;;;;;;8.80;4.97;;;;;;;;;;5028230;28;20113;-80
2023/06/14 01:34:08;;;;;;;5.93;4.72;;;;;;;;;;5026316;28;20026;-81
2023/06/14 01:36:35;;;;;;;8.95;4.68;;;;;;;;;;5034322;28;20583;-82
2023/06/14 01:39:02;;;;;;;7.00;4.72;;;;;;;;;;5033247;28;20042;-81
2023/06/14 01:41:29;;;;;;;7.47;4.60;;;;;;;;;;5045554;28;20025;-82
2023/06/14 01:43:57;;;;;;;10.63;5.07;;;;;;;;;;5028060;28;20044;-81
2023/06/14 01:46:23;;;;;;;7.13;5.00;;;;;;;;;;5028931;28;20065;-80
2023/06/14 01:48:49;;;;;;;6.75;4.55;;;;;;;;;;5029875;28;20037;-79
2023/06/14 01:51:15;;;;;;;9.63;5.10;;;;;;;;;;5032413;28;20034;-80
2023/06/14 01:53:42;;;;;;;6.35;5.32;;;;;;;;;;5029889;28;20054;-81
2023/06/14 01:56:08;;;;;;;7.45;5.30;;;;;;;;;;5035949;28;20033;-80
2023/06/14 01:58:41;;;;;;;9.65;5.10;;;;;;;;;;5032578;28;20089;-80
2023/06/14 02:01:07;;;;;;;5.90;4.45;;;;;;;;;;5037813;28;20033;-81
2023/06/14 02:03:37;;;;;;;7.47;4.97;;;;;;;;;;5028400;28;20134;-80
2023/06/14 02:06:04;;;;;;;8.95;5.70;;;;;;;;;;5043616;28;20037;-81
2023/06/14 02:08:30;;;;;;;11.43;5.65;;;;;;;;;;5032703;28;20026;-82
2023/06/14 02:10:56;;;;;;;8.38;5.28;;;;;;;;;;5029910;28;20046;-81
2023/06/14 02:13:22;;;;;;;10.82;5.38;;;;;;;;;;5031948;28;20038;-81
2023/06/14 02:15:51;;;;;;;9.93;5.40;;;;;;;;;;5032619;28;20042;-81
2023/06/14 02:18:19;;;;;;;8.82;4.72;;;;;;;;;;5044786;28;20014;-82
2023/06/14 02:20:45;;;;;;;7.10;5.40;;;;;;;;;;5029968;28;20038;-81
2023/06/14 02:23:11;;;;;;;10.88;5.53;;;;;;;;;;5032749;28;20014;-81
2023/06/14 02:25:42;;;;;;;9.38;5.22;;;;;;;;;;5045800;28;20026;-81
2023/06/14 02:28:09;;;;;;;8.40;4.90;;;;;;;;;;5031311;28;20454;-80
2023/06/14 02:30:37;;;;;;;7.80;5.32;;;;;;;;;;5028598;28;20022;-80
2023/06/14 02:33:04;;;;;;;10.27;5.45;;;;;;;;;;5027749;28;20026;-80
2023/06/14 02:35:30;;;;;;;10.98;5.57;;;;;;;;;;5043978;28;20010;-80
2023/06/14 02:37:59;;;;;;;8.27;4.85;;;;;;;;;;5030245;28;20022;-80
2023/06/14 02:40:25;;;;;;;7.93;5.00;;;;;;;;;;5047907;28;20109;-81
2023/06/14 02:42:53;;;;;;;8.52;5.35;;;;;;;;;;5029258;28;20110;-84
2023/06/14 02:45:20;;;;;;;7.90;5.00;;;;;;;;;;5044181;28;20034;-80
2023/06/14 02:47:49;;;;;;;7.13;5.25;;;;;;;;;;5028521;28;20018;-80
2023/06/14 02:50:15;;;;;;;8.82;5.40;;;;;;;;;;5029055;28;20038;-83
2023/06/14 02:52:45;;;;;;;8.25;5.97;;;;;;;;;;5045028;28;20038;-81
2023/06/14 02:55:13;;;;;;;8.75;5.20;;;;;;;;;;5028603;28;20061;-81
2023/06/14 02:57:39;;;;;;;11.63;5.63;;;;;;;;;;5028561;28;20014;-79
2023/06/14 03:00:09;;;;;;;7.63;4.40;;;;;;;;;;5032331;28;20057;-80
2023/06/14 03:02:37;;;;;;;6.93;4.90;;;;;;;;;;5033320;28;20030;-79
2023/06/14 03:05:06;;;;;;;7.82;5.95;;;;;;;;;;5029760;28;20092;-81
2023/06/14 03:07:37;;;;;;;6.60;5.20;;;;;;;;;;5043173;28;20018;-79
2023/06/14 03:10:09;;;;;;;10.15;5.95;;;;;;;;;;5027926;28;20036;-80
2023/06/14 03:12:35;;;;;;;7.97;4.78;;;;;;;;;;5032302;28;20524;-81
2023/06/14 03:15:02;;;;;;;11.23;6.07;;;;;;;;;;5029439;28;20035;-80
2023/06/14 03:17:29;;;;;;;9.10;6.05;;;;;;;;;;5027755;28;20022;-80
2023/06/14 03:20:03;;;;;;;9.45;5.35;;;;;;;;;;5031849;28;21478;-83
2023/06/14 03:22:37;;;;;;;9.63;5.90;;;;;;;;;;5030132;28;20022;-81
2023/06/14 03:25:11;;;;;;;10.60;5.47;;;;;;;;;;5045866;28;20041;-79
2023/06/14 03:27:47;;;;;;;;;;;;;;;;;;;;;
2023/06/14 03:30:16;;;;;;;9.00;5.63;;;;;;;;;;5029785;28;20022;-81
2023/06/14 03:33:02;;;;;;;9.97;5.73;;;;;;;;;;5028114;28;20133;-81
2023/06/14 03:35:34;;;;;;;10.50;5.60;;;;;;;;;;5029641;28;20033;-80
2023/06/14 03:38:08;;;;;;;10.18;5.38;;;;;;;;;;5043017;28;20017;-80
2023/06/14 03:40:44;;;;;;;13.43;5.73;;;;;;;;;;5045072;28;20072;-81
2023/06/14 03:43:10;;;;;;;10.03;6.03;;;;;;;;;;5028917;28;20026;-79
2023/06/14 03:45:36;;;;;;;9.60;6.37;;;;;;;;;;5031173;28;20045;-81
2023/06/14 03:48:09;;;;;;;9.07;6.57;;;;;;;;;;5028675;28;20014;-80
2023/06/14 03:50:39;;;;;;;9.90;5.53;;;;;;;;;;5029152;28;20034;-80
2023/06/14 03:53:07;;;;;;;9.20;6.30;;;;;;;;;;5032817;28;20112;-79
2023/06/14 03:55:33;;;;;;;10.47;6.10;;;;;;;;;;5028632;28;20049;-80
2023/06/14 03:57:59;;;;;;;15.50;6.10;;;;;;;;;;5029231;28;20038;-81
2023/06/14 04:00:26;;;;;;;9.07;6.23;;;;;;;;;;5029660;28;20069;-81
2023/06/14 04:02:55;;;;;;;10.27;5.90;;;;;;;;;;5028497;28;20029;-80
2023/06/14 04:05:26;;;;;;;13.23;6.47;;;;;;;;;;5029359;28;20236;-81
2023/06/14 04:07:55;;;;;;;11.17;5.47;;;;;;;;;;5044006;28;21194;-81
2023/06/14 04:10:21;;;;;;;9.60;5.77;;;;;;;;;;5044594;28;20073;-83
2023/06/14 04:12:48;;;;;;;11.07;6.27;;;;;;;;;;5029278;28;20026;-80
2023/06/14 04:15:16;;;;;;;13.20;6.97;;;;;;;;;;5045530;28;20022;-80
2023/06/14 04:17:42;;;;;;;10.00;6.50;;;;;;;;;;5028707;28;20010;-80
2023/06/14 04:20:09;;;;;;;13.03;6.30;;;;;;;;;;5045285;28;20101;-80
2023/06/14 04:22:57;;;;;;;12.73;6.60;;;;;;;;;;5025470;28;20034;-80
2023/06/14 04:25:26;;;;;;;10.40;6.80;;;;;;;;;;5025220;28;20025;-81
2023/06/14 04:27:52;;;;;;;7.80;5.90;;;;;;;;;;5030432;28;20026;-82
2023/06/14 04:30:18;;;;;;;11.40;5.83;;;;;;;;;;5029614;28;20006;-80
2023/06/14 04:32:45;;;;;;;15.37;6.27;;;;;;;;;;5025393;28;20049;-81
2023/06/14 04:35:11;;;;;;;12.13;6.50;;;;;;;;;;5028060;28;20101;-81
2023/06/14 04:37:40;;;;;;;10.30;6.10;;;;;;;;;;5028116;28;20026;-82
2023/06/14 04:40:06;;;;;;;10.77;6.27;;;;;;;;;;5027932;28;20076;-81
2023/06/14 04:42:32;;;;;;;8.65;6.00;;;;;;;;;;5027540;28;20083;-82
2023/06/14 04:44:58;;;;;;;11.85;6.78;;;;;;;;;;5026894;28;20036;-79
2023/06/14 04:47:29;;;;;;;15.93;6.40;;;;;;;;;;5041656;28;20097;-78
2023/06/14 04:49:55;;;;;;;10.60;6.63;;;;;;;;;;5027283;28;20103;-80
2023/06/14 04:52:22;;;;;;;15.88;6.50;;;;;;;;;;5025875;28;20037;-83
2023/06/14 04:54:49;;;;;;;10.60;6.10;;;;;;;;;;5025946;28;20068;-80
2023/06/14 04:57:17;;;;;;;15.13;6.97;;;;;;;;;;5026763;28;20113;-82
2023/06/14 04:59:45;;;;;;;12.75;6.38;;;;;;;;;;5042748;28;20030;-80
2023/06/14 05:02:12;;;;;;;11.60;6.53;;;;;;;;;;5028474;28;20054;-78
2023/06/14 05:04:41;;;;;;;9.48;5.88;;;;;;;;;;5040127;28;20026;-81
2023/06/14 05:07:10;;;;;;;13.48;6.65;;;;;;;;;;5021864;28;20036;-81
2023/06/14 05:09:36;;;;;;;8.63;6.35;;;;;;;;;;5024699;28;20037;-81
2023/06/14 05:12:03;;;;;;;10.18;5.57;;;;;;;;;;5023471;28;20034;-81
2023/06/14 05:14:29;;;;;;;8.02;5.90;;;;;;;;;;5039823;28;20034;-80
2023/06/14 05:16:55;;;;;;;7.80;5.85;;;;;;;;;;5024215;28;20030;-80
2023/06/14 05:19:24;;;;;;;9.55;5.95;;;;;;;;;;5025462;28;20029;-82
2023/06/14 05:21:52;;;;;;;9.05;6.32;;;;;;;;;;5039998;28;20064;-79
2023/06/14 05:24:22;;;;;;;14.13;5.75;;;;;;;;;;5024950;28;20027;-81
2023/06/14 05:26:48;;;;;;;10.65;5.40;;;;;;;;;;5021034;28;20017;-81
2023/06/14 05:29:14;;;;;;;9.85;5.82;;;;;;;;;;5039324;28;20026;-81
2023/06/14 05:31:43;;;;;;;11.15;4.85;;;;;;;;;;5025737;28;20037;-82
2023/06/14 05:34:09;;;;;;;10.52;4.60;;;;;;;;;;5038928;28;20022;-84
2023/06/14 05:36:36;;;;;;;10.48;4.22;;;;;;;;;;5024578;28;20337;-83
2023/06/14 05:39:04;;;;;;;7.28;3.67;;;;;;;;;;5038153;28;20030;-82
2023/06/14 05:41:32;;;;;;;8.38;3.50;;;;;;;;;;5022163;28;20038;-80
2023/06/14 05:44:00;;;;;;;11.27;3.95;;;;;;;;;;5021232;28;20018;-82
2023/06/14 05:46:26;;;;;;;10.80;3.67;;;;;;;;;;5021333;28;20048;-81
2023/06/14 05:48:52;;;;;;;11.10;4.18;;;;;;;;;;5021473;28;20034;-82
2023/06/14 05:51:19;;;;;;;11.07;3.95;;;;;;;;;;5024986;28;20074;-82
2023/06/14 05:53:49;;;;;;;10.88;3.20;;;;;;;;;;5020547;28;20086;-82
2023/06/14 05:56:17;;;;;;;7.50;3.70;;;;;;;;;;5024029;28;20026;-83
2023/06/14 05:58:43;;;;;;;12.02;3.65;;;;;;;;;;5024670;28;20077;-81
2023/06/14 06:01:17;;;;;;;8.10;3.28;;;;;;;;;;5023387;28;20030;-82
2023/06/14 06:03:53;;;;;;;12.77;3.75;;;;;;;;;;5022019;28;20045;-79
2023/06/14 06:06:24;;;;;;;9.10;3.05;;;;;;;;;;5038256;28;20045;-78
2023/06/14 06:08:51;;;;;;;6.30;3.40;;;;;;;;;;5035619;28;20134;-81
2023/06/14 06:11:17;;;;;;;7.18;3.03;;;;;;;;;;5023676;28;20070;-81
2023/06/14 06:13:43;;;;;;;6.13;2.95;;;;;;;;;;5023001;28;20022;-81
2023/06/14 06:16:11;;;;;;;6.50;3.47;;;;;;;;;;5037498;28;20091;-81
2023/06/14 06:18:37;;;;;;;7.00;3.20;;;;;;;;;;5022585;28;20037;-78
2023/06/14 06:21:24;;;;;;;6.82;3.47;;;;;;;;;;5083563;22;20042;-81
2023/06/14 06:24:08;;;;;;;12.98;3.90;;;;;;;;;;5018317;28;20097;-80
2023/06/14 06:26:34;;;;;;;9.82;2.85;;;;;;;;;;5015899;28;20531;-82
2023/06/14 06:29:00;;;;;;;6.30;3.08;;;;;;;;;;5017038;28;20101;-80
2023/06/14 06:31:27;;;;;;;18.67;3.67;;;;;;;;;;5015734;28;20311;-80
2023/06/14 06:33:55;;;;;;;5.90;2.63;;;;;;;;;;5016982;28;20049;-80
2023/06/14 06:36:21;;;;;;;6.40;3.08;;;;;;;;;;5015329;28;20018;-81
2023/06/14 06:38:48;;;;;;;9.00;3.40;;;;;;;;;;5033401;28;20030;-79
2023/06/14 06:41:14;;;;;;;4.65;2.50;;;;;;;;;;5016815;28;20045;-82
2023/06/14 06:43:43;;;;;;;16.25;3.72;;;;;;;;;;5018750;28;20042;-82
2023/06/14 06:46:09;;;;;;;5.63;2.75;;;;;;;;;;5020030;28;20042;-80
2023/06/14 06:48:45;;;;;;;7.05;2.97;;;;;;;;;;5022050;28;20029;-80
2023/06/14 06:51:12;;;;;;;9.70;4.00;;;;;;;;;;5037175;28;20059;-81
2023/06/14 06:53:38;;;;;;;9.30;2.92;;;;;;;;;;5020391;28;20037;-79
2023/06/14 06:56:05;;;;;;;7.72;3.58;;;;;;;;;;5037851;28;20033;-80
2023/06/14 06:58:33;;;;;;;5.63;2.30;;;;;;;;;;5038518;28;20037;-81
2023/06/14 07:01:01;;;;;;;6.85;2.42;;;;;;;;;;5026035;28;20101;-80
2023/06/14 07:03:30;;;;;;;6.68;2.67;;;;;;;;;;5023287;28;20068;-80
2023/06/14 07:05:56;;;;;;;24.00;2.72;;;;;;;;;;5021956;28;20057;-79
2023/06/14 07:08:22;;;;;;;5.97;2.60;;;;;;;;;;5026447;28;20041;-80
2023/06/14 07:10:48;;;;;;;5.53;3.15;;;;;;;;;;5021134;28;20137;-80
2023/06/14 07:13:15;;;;;;;8.27;2.15;;;;;;;;;;5025423;28;20049;-81
2023/06/14 07:15:41;;;;;;;4.40;2.45;;;;;;;;;;5037831;28;20030;-81
2023/06/14 07:18:08;;;;;;;10.07;2.65;;;;;;;;;;5030748;28;20026;-80
2023/06/14 07:20:34;;;;;;;12.65;3.25;;;;;;;;;;5032200;28;20046;-80
2023/06/14 07:23:00;;;;;;;6.05;2.38;;;;;;;;;;5022267;28;20062;-80
2023/06/14 07:25:26;;;;;;;8.90;2.30;;;;;;;;;;5021152;28;20086;-80
2023/06/14 07:27:52;;;;;;;4.80;2.65;;;;;;;;;;5019083;28;20044;-79
2023/06/14 07:30:20;;;;;;;5.68;2.40;;;;;;;;;;5336564;22;20023;-79
2023/06/14 07:32:46;;;;;;;6.88;2.45;;;;;;;;;;5042553;28;20071;-81
2023/06/14 07:35:12;;;;;;;8.73;2.58;;;;;;;;;;5046259;28;20089;-80
2023/06/14 07:37:38;;;;;;;8.95;2.50;;;;;;;;;;5061304;28;20035;-80
2023/06/14 07:40:06;;;;;;;8.00;2.95;;;;;;;;;;5044267;28;20025;-79
2023/06/14 07:42:33;;;;;;;5.55;2.33;;;;;;;;;;5057904;28;20025;-79
2023/06/14 07:44:59;;;;;;;10.10;2.35;;;;;;;;;;5052097;28;20037;-80
2023/06/14 07:47:25;;;;;;;5.93;2.72;;;;;;;;;;5043574;28;20045;-80
2023/06/14 07:49:51;;;;;;;3.70;2.10;;;;;;;;;;5042830;28;20018;-79
2023/06/14 07:52:18;;;;;;;7.47;2.08;;;;;;;;;;5050782;28;20060;-80
2023/06/14 07:54:44;;;;;;;5.70;1.90;;;;;;;;;;5045481;28;20038;-81
2023/06/14 07:57:10;;;;;;;5.30;1.85;;;;;;;;;;5044841;28;20017;-80
2023/06/14 07:59:45;;;;;;;5.22;1.98;;;;;;;;;;5045215;28;20022;-80
2023/06/14 08:02:11;;;;;;;8.02;2.17;;;;;;;;;;5060527;28;20010;-80
2023/06/14 08:04:37;;;;;;;2.58;1.50;;;;;;;;;;5060476;28;20059;-79
2023/06/14 08:07:04;;;;;;;3.10;1.70;;;;;;;;;;5043829;28;20028;-80
2023/06/14 08:09:30;;;;;;;5.55;1.27;;;;;;;;;;5043032;28;20065;-81
2023/06/14 08:12:00;;;;;;;2.17;1.00;;;;;;;;;;5047311;28;20030;-79
2023/06/14 08:14:26;;;;;;;8.15;1.55;;;;;;;;;;5042966;28;20029;-80
2023/06/14 08:16:52;;;;;;;3.00;1.20;;;;;;;;;;5043002;28;20026;-79
2023/06/14 08:19:18;;;;;;;1.25;0.95;;;;;;;;;;5041695;28;20041;-78
2023/06/14 08:21:46;;;;;;;1.30;0.90;;;;;;;;;;5042934;28;20098;-79
2023/06/14 08:24:14;;;;;;;2.08;1.05;;;;;;;;;;5057702;28;20022;-79
2023/06/14 08:26:40;;;;;;;1.67;1.10;;;;;;;;;;5041255;28;20021;-79
2023/06/14 08:29:06;;;;;;;5.38;1.15;;;;;;;;;;5043053;28;20021;-79
2023/06/14 08:31:33;;;;;;;2.05;1.13;;;;;;;;;;5053552;28;20037;-79
2023/06/14 08:33:59;;;;;;;4.68;1.50;;;;;;;;;;5041995;28;20037;-80
2023/06/14 08:36:25;;;;;;;2.78;1.20;;;;;;;;;;5059171;28;20006;-80
2023/06/14 08:38:52;;;;;;;3.78;1.10;;;;;;;;;;5043114;28;20022;-81
2023/06/14 08:41:22;;;;;;;2.97;1.30;;;;;;;;;;5042971;28;20632;-79
2023/06/14 08:43:49;;;;;;;2.88;1.08;;;;;;;;;;5045676;28;20022;-83
2023/06/14 08:46:19;;;;;;;3.50;1.63;;;;;;;;;;5040802;28;20034;-80
2023/06/14 08:48:46;;;;;;;4.00;2.10;;;;;;;;;;5043516;28;20017;-80
2023/06/14 08:51:33;;;;;;;4.03;1.35;;;;;;;;;;5047980;28;20022;-80
2023/06/14 08:54:01;;;;;;;2.65;1.15;;;;;;;;;;5051290;28;20017;-80
2023/06/14 08:56:28;;;;;;;5.07;1.48;;;;;;;;;;5042864;28;20038;-82
2023/06/14 08:58:56;;;;;;;2.53;1.50;;;;;;;;;;5046131;28;20021;-79
2023/06/14 09:01:23;;;;;;;1.70;1.15;;;;;;;;;;5041541;28;20029;-82
2023/06/14 09:03:49;;;;;;;5.38;1.27;;;;;;;;;;5045526;28;20026;-81
2023/06/14 09:06:15;;;;;;;2.28;1.40;;;;;;;;;;5052463;28;20037;-80
2023/06/14 09:08:51;;;;;;;3.13;1.30;;;;;;;;;;5028820;28;20022;-80
2023/06/14 09:11:18;;;;;;;2.20;1.52;;;;;;;;;;5044017;28;20053;-80
2023/06/14 09:13:45;;;;;;;5.50;1.00;;;;;;;;;;5045047;28;20094;-81
2023/06/14 09:16:11;;;;;;;2.92;1.30;;;;;;;;;;5061198;28;20033;-80
2023/06/14 09:18:47;;;;;;;4.80;1.42;;;;;;;;;;5056565;28;20033;-78
2023/06/14 09:21:14;;;;;;;2.53;1.63;;;;;;;;;;5049211;28;20028;-79
2023/06/14 09:23:47;;;;;;;6.88;1.40;;;;;;;;;;5042881;28;20024;-81
2023/06/14 09:26:13;;;;;;;4.88;1.83;;;;;;;;;;5041377;28;20013;-80
2023/06/14 09:28:52;;;;;;;2.85;1.10;;;;;;;;;;5057295;28;20017;-80
2023/06/14 09:31:19;;;;;;;1.75;1.20;;;;;;;;;;5049847;28;20026;-81
2023/06/14 09:33:47;;;;;;;1.60;1.20;;;;;;;;;;5039871;28;20018;-80
2023/06/14 09:36:18;;;;;;;3.85;2.10;;;;;;;;;;5042196;28;20014;-80
2023/06/14 09:38:54;;;;;;;6.25;1.52;;;;;;;;;;5039327;28;20025;-81
2023/06/14 09:41:23;;;;;;;3.15;1.17;;;;;;;;;;5045035;28;20006;-80
2023/06/14 09:43:50;;;;;;;3.25;1.88;;;;;;;;;;5043328;28;20086;-80
2023/06/14 09:46:16;;;;;;;6.85;2.03;;;;;;;;;;5057696;28;20040;-81
2023/06/14 09:48:42;;;;;;;5.68;1.85;;;;;;;;;;5040836;28;20865;-82
2023/06/14 09:51:10;;;;;;;3.92;1.70;;;;;;;;;;5037017;28;20041;-82
2023/06/14 09:53:37;;;;;;;2.90;1.40;;;;;;;;;;5039299;28;20096;-81
2023/06/14 09:56:05;;;;;;;2.80;1.35;;;;;;;;;;5038689;28;20017;-81
2023/06/14 09:58:31;;;;;;;2.33;1.50;;;;;;;;;;5044502;28;20043;-80
2023/06/14 10:00:57;;;;;;;3.08;1.45;;;;;;;;;;5044301;28;20232;-80
2023/06/14 10:03:29;;;;;;;4.53;1.40;;;;;;;;;;5047423;28;20022;-80
2023/06/14 10:06:01;;;;;;;5.18;1.42;;;;;;;;;;5053775;28;20045;-80
2023/06/14 10:08:28;;;;;;;4.18;1.48;;;;;;;;;;5042663;28;20049;-81
2023/06/14 10:10:56;;;;;;;2.90;1.45;;;;;;;;;;5044736;28;20048;-81
2023/06/14 10:13:22;;;;;;;5.97;1.88;;;;;;;;;;5048049;28;20041;-80
2023/06/14 10:15:56;;;;;;;2.83;1.20;;;;;;;;;;5046012;28;20102;-80
2023/06/14 10:18:29;;;;;;;6.32;1.63;;;;;;;;;;5050964;28;20036;-80
2023/06/14 10:21:14;;;;;;;6.47;2.28;;;;;;;;;;5046740;28;20022;-81
2023/06/14 10:23:42;;;;;;;7.55;1.80;;;;;;;;;;5062536;28;20093;-81
2023/06/14 10:26:08;;;;;;;5.63;1.67;;;;;;;;;;5055688;28;20044;-81
2023/06/14 10:28:37;;;;;;;4.40;1.55;;;;;;;;;;5056320;28;20026;-80
2023/06/14 10:31:13;;;;;;;3.05;1.33;;;;;;;;;;5050484;28;20848;-80
2023/06/14 10:33:56;;;;;;;2.28;1.48;;;;;;;;;;5046802;28;20728;-80
2023/06/14 10:36:22;;;;;;;2.33;1.50;;;;;;;;;;5049065;28;20032;-80
2023/06/14 10:38:58;;;;;;;3.88;1.33;;;;;;;;;;5062348;28;20010;-81
2023/06/14 10:41:25;;;;;;;2.08;1.40;;;;;;;;;;5046634;28;20101;-80
2023/06/14 10:43:51;;;;;;;2.00;1.02;;;;;;;;;;5043920;28;20026;-79
2023/06/14 10:46:23;;;;;;;3.13;1.40;;;;;;;;;;5044065;28;20041;-80
2023/06/14 10:48:49;;;;;;;8.07;1.42;;;;;;;;;;5168084;23;20099;-80
2023/06/14 10:51:21;;;;;;;8.07;1.80;;;;;;;;;;5035354;28;20037;-80
2023/06/14 10:53:48;;;;;;;4.28;1.45;;;;;;;;;;5045948;28;21173;-82
2023/06/14 10:56:27;;;;;;;4.20;2.00;;;;;;;;;;5036103;28;20034;-80
2023/06/14 10:58:53;;;;;;;5.68;1.48;;;;;;;;;;5036475;28;20018;-81
2023/06/14 11:01:23;;;;;;;5.68;1.80;;;;;;;;;;5035223;28;20018;-80
2023/06/14 11:03:53;;;;;;;3.47;1.35;;;;;;;;;;5049968;28;20014;-79
2023/06/14 11:06:23;;;;;;;6.85;1.50;;;;;;;;;;5032664;28;20026;-80
2023/06/14 11:09:05;;;;;;;7.13;1.30;;;;;;;;;;5032028;28;20104;-84
2023/06/14 11:11:33;;;;;;;3.15;1.50;;;;;;;;;;5046459;28;20329;-80
2023/06/14 11:14:01;;;;;;;8.90;2.13;;;;;;;;;;5046086;28;20022;-80
2023/06/14 11:16:28;;;;;;;9.30;1.75;;;;;;;;;;5032236;28;20022;-81
2023/06/14 11:18:54;;;;;;;5.60;1.52;;;;;;;;;;5027601;28;20042;-85
2023/06/14 11:21:20;;;;;;;4.88;1.35;;;;;;;;;;5018612;28;20029;-87
2023/06/14 11:23:50;;;;;;;3.08;1.30;;;;;;;;;;5013018;28;20542;-87
2023/06/14 11:26:19;;;;;;;3.80;1.27;;;;;;;;;;5029503;28;20022;-89
2023/06/14 11:28:45;;;;;;;6.15;1.50;;;;;;;;;;5015062;28;20026;-87
2023/06/14 11:31:11;;;;;;;3.17;1.55;;;;;;;;;;5007006;28;20032;-89
2023/06/14 11:33:37;;;;;;;3.75;1.52;;;;;;;;;;5011823;28;20113;-90
2023/06/14 11:36:08;;;;;;;6.40;1.73;;;;;;;;;;5013982;28;20031;-88
2023/06/14 11:38:39;;;;;;;9.75;1.50;;;;;;;;;;5012740;28;20049;-89
2023/06/14 11:41:05;;;;;;;11.85;1.67;;;;;;;;;;5012423;28;20038;-89
2023/06/14 11:43:34;;;;;;;5.63;1.50;;;;;;;;;;5016423;28;20033;-87
2023/06/14 11:46:00;;;;;;;13.85;2.00;;;;;;;;;;5014241;28;20034;-86
2023/06/14 11:48:53;;;;;;;2.63;1.23;;;;;;;;;;5027121;28;20493;-86
2023/06/14 11:51:20;;;;;;;5.57;1.80;;;;;;;;;;5009430;28;20076;-87
2023/06/14 11:53:49;;;;;;;1.40;1.05;;;;;;;;;;5016156;28;20018;-88
2023/06/14 11:56:15;;;;;;;7.35;1.60;;;;;;;;;;5015369;28;20099;-87
2023/06/14 11:58:43;;;;;;;3.53;1.08;;;;;;;;;;5012297;28;20029;-88
2023/06/14 12:01:09;;;;;;;2.67;1.63;;;;;;;;;;5006135;28;20026;-88
2023/06/14 12:03:35;;;;;;;3.13;1.13;;;;;;;;;;5007542;28;20086;-89
2023/06/14 12:06:09;;;;;;;2.92;1.67;;;;;;;;;;5012871;28;20395;-91
2023/06/14 12:08:40;;;;;;;7.38;1.90;;;;;;;;;;5012260;28;20018;-89
2023/06/14 12:11:09;;;;;;;4.70;1.25;;;;;;;;;;5012431;28;20029;-89
2023/06/14 12:13:38;;;;;;;2.15;1.20;;;;;;;;;;5013279;28;20034;-90
2023/06/14 12:16:05;;;;;;;4.80;1.23;;;;;;;;;;5013319;28;20030;-88
2023/06/14 12:18:35;;;;;;;2.05;0.95;;;;;;;;;;5013417;28;20022;-90
2023/06/14 12:21:06;;;;;;;3.75;1.50;;;;;;;;;;5007816;28;20426;-90
2023/06/14 12:23:47;;;;;;;2.78;1.35;;;;;;;;;;5009221;28;20341;-89
2023/06/14 12:26:14;;;;;;;2.85;1.35;;;;;;;;;;5015219;28;20076;-88
2023/06/14 12:28:42;;;;;;;6.30;1.27;;;;;;;;;;5013463;28;20108;-92
2023/06/14 12:31:08;;;;;;;4.00;1.15;;;;;;;;;;5011774;28;20458;-88
2023/06/14 12:33:34;;;;;;;5.15;1.30;;;;;;;;;;5011191;28;20064;-90
2023/06/14 12:36:00;;;;;;;2.78;1.27;;;;;;;;;;5012113;28;20438;-89
2023/06/14 12:38:26;;;;;;;2.95;1.35;;;;;;;;;;5010148;28;20014;-88
2023/06/14 12:40:53;;;;;;;3.50;1.00;;;;;;;;;;5012100;28;20049;-87
2023/06/14 12:43:19;;;;;;;1.13;0.75;;;;;;;;;;5008567;28;20454;-90
2023/06/14 12:45:45;;;;;;;3.28;1.10;;;;;;;;;;5011633;28;20030;-88
2023/06/14 12:48:11;;;;;;;3.42;1.02;;;;;;;;;;5011193;28;20433;-89
2023/06/14 12:50:37;;;;;;;3.72;1.10;;;;;;;;;;5012244;28;20021;-89
2023/06/14 12:53:03;;;;;;;3.00;1.10;;;;;;;;;;5013526;28;20033;-87
2023/06/14 12:55:29;;;;;;;3.10;1.67;;;;;;;;;;5013633;28;20092;-88
2023/06/14 12:57:55;;;;;;;1.83;1.30;;;;;;;;;;5011953;28;20032;-89
2023/06/14 13:00:21;;;;;;;5.68;1.38;;;;;;;;;;5012497;28;20034;-89
2023/06/14 13:02:47;;;;;;;2.03;1.10;;;;;;;;;;5011854;28;20045;-90
2023/06/14 13:05:13;;;;;;;2.67;1.58;;;;;;;;;;5006550;28;20072;-89
2023/06/14 13:07:39;;;;;;;2.55;0.95;;;;;;;;;;5010449;28;20026;-86
2023/06/14 13:10:06;;;;;;;2.42;0.98;;;;;;;;;;5011393;28;20034;-90
2023/06/14 13:12:32;;;;;;;1.52;1.20;;;;;;;;;;5008298;28;20038;-89
2023/06/14 13:14:58;;;;;;;3.53;0.73;;;;;;;;;;5008449;28;20048;-88
2023/06/14 13:17:24;;;;;;;3.33;1.20;;;;;;;;;;5011353;28;20571;-89
2023/06/14 13:19:50;;;;;;;2.90;1.30;;;;;;;;;;5003076;28;20065;-89
2023/06/14 13:22:22;;;;;;;2.33;1.10;;;;;;;;;;5011226;28;20026;-88
2023/06/14 13:24:48;;;;;;;;;;;;;;;;;;5004454;28;20018;-90
2023/06/14 13:27:14;;;;;;;1.88;1.25;;;;;;;;;;5006644;28;19917;-88
2023/06/14 13:29:40;;;;;;;2.75;1.00;;;;;;;;;;5009558;28;20450;-89
2023/06/14 13:32:06;;;;;;;3.08;1.23;;;;;;;;;;5010653;28;20044;-89
2023/06/14 13:34:32;;;;;;;1.67;0.93;;;;;;;;;;5008156;28;20039;-87
2023/06/14 13:36:58;;;;;;;4.60;0.98;;;;;;;;;;5005298;28;20022;-88
2023/06/14 13:39:25;;;;;;;1.65;0.80;;;;;;;;;;5012410;28;20044;-89
2023/06/14 13:41:51;;;;;;;6.63;1.30;;;;;;;;;;5012642;28;20573;-90
2023/06/14 13:44:21;;;;;;;4.80;1.25;;;;;;;;;;5011257;28;20118;-90
2023/06/14 13:46:47;;;;;;;1.88;0.88;;;;;;;;;;5010616;28;20560;-89
2023/06/14 13:49:13;;;;;;;4.88;1.00;;;;;;;;;;5010054;28;20064;-88
2023/06/14 13:51:39;;;;;;;10.32;1.73;;;;;;;;;;5006743;28;20030;-90
2023/06/14 13:54:05;;;;;;;2.53;1.00;;;;;;;;;;5014516;28;20095;-89
2023/06/14 13:56:31;;;;;;;3.05;1.38;;;;;;;;;;5011711;28;20057;-87
2023/06/14 13:58:57;;;;;;;9.77;2.20;;;;;;;;;;5011064;28;20060;-90
2023/06/14 14:01:23;;;;;;;2.53;1.20;;;;;;;;;;5012561;28;20049;-89
2023/06/14 14:03:50;;;;;;;3.53;1.05;;;;;;;;;;5005461;28;20026;-90
2023/06/14 14:06:16;;;;;;;3.95;1.52;;;;;;;;;;5004535;28;20033;-87
2023/06/14 14:08:43;;;;;;;3.05;1.15;;;;;;;;;;5005766;28;20044;-88
2023/06/14 14:11:09;;;;;;;2.78;1.30;;;;;;;;;;5011398;28;20438;-89
2023/06/14 14:13:36;;;;;;;8.52;1.02;;;;;;;;;;5011658;28;20034;-90
2023/06/14 14:16:03;;;;;;;1.75;1.20;;;;;;;;;;5012243;28;20443;-89
2023/06/14 14:18:32;;;;;;;3.63;1.50;;;;;;;;;;5005979;28;20049;-90
2023/06/14 14:20:58;;;;;;;6.22;2.00;;;;;;;;;;5011824;28;20084;-92
2023/06/14 14:23:24;;;;;;;5.47;1.60;;;;;;;;;;5010528;28;20130;-88
2023/06/14 14:25:50;;;;;;;55.25;4.35;;;;;;;;;;5011070;28;20033;-91
2023/06/14 14:28:19;;;;;;;5.00;1.10;;;;;;;;;;5012176;28;21601;-91
2023/06/14 14:30:45;;;;;;;2.53;1.25;;;;;;;;;;5011354;28;20109;-90
2023/06/14 14:33:15;;;;;;;2.75;1.30;;;;;;;;;;5012950;28;20080;-91
2023/06/14 14:35:41;;;;;;;2.85;1.30;;;;;;;;;;5011461;28;20096;-90
2023/06/14 14:38:07;;;;;;;6.35;1.63;;;;;;;;;;5009724;28;20562;-90
2023/06/14 14:40:35;;;;;;;1.48;1.10;;;;;;;;;;5010336;28;20045;-90
2023/06/14 14:43:04;;;;;;;3.42;1.30;;;;;;;;;;5010903;28;20026;-88
2023/06/14 14:45:31;;;;;;;2.45;1.55;;;;;;;;;;5010183;28;20110;-91
2023/06/14 14:47:57;;;;;;;2.10;1.15;;;;;;;;;;5014434;28;20022;-90
2023/06/14 14:50:23;;;;;;;1.50;1.13;;;;;;;;;;5015030;28;20029;-91
2023/06/14 14:52:49;;;;;;;4.53;1.35;;;;;;;;;;5014747;28;20022;-89